createdAt,value
2018-09-26T00:00:25.328Z,89
2018-09-26T00:01:27.342Z,88
2018-09-26T00:02:29.648Z,88
2018-09-26T00:03:31.677Z,88
2018-09-26T00:04:33.699Z,88
2018-09-26T00:05:36.021Z,88
2018-09-26T00:06:38.036Z,88
2018-09-26T00:07:40.053Z,88
2018-09-26T00:08:42.071Z,88
2018-09-26T00:09:44.105Z,88
2018-09-26T00:10:46.117Z,88
2018-09-26T00:11:48.145Z,88
2018-09-26T00:12:50.165Z,88
2018-09-26T00:13:52.756Z,88
2018-09-26T00:14:54.769Z,88
2018-09-26T00:15:57.080Z,88
2018-09-26T00:16:59.395Z,88
2018-09-26T00:18:01.429Z,88
2018-09-26T00:19:03.441Z,88
2018-09-26T00:20:05.474Z,88
2018-09-26T00:21:07.495Z,88
2018-09-26T00:22:09.897Z,88
2018-09-26T00:23:11.927Z,88
2018-09-26T00:24:13.947Z,89
2018-09-26T00:25:15.967Z,89
2018-09-26T00:26:17.980Z,89
2018-09-26T00:27:20.398Z,88
2018-09-26T00:28:22.418Z,88
2018-09-26T00:29:24.824Z,88
2018-09-26T00:30:26.847Z,88
2018-09-26T00:31:28.860Z,88
2018-09-26T00:32:30.886Z,88
2018-09-26T00:33:32.912Z,88
2018-09-26T00:34:34.919Z,88
2018-09-26T00:35:36.952Z,88
2018-09-26T00:36:38.977Z,88
2018-09-26T00:37:41.350Z,88
2018-09-26T00:38:43.668Z,88
2018-09-26T00:39:45.690Z,88
2018-09-26T00:40:48.690Z,88
2018-09-26T00:41:50.992Z,88
2018-09-26T00:42:53.023Z,88
2018-09-26T00:43:55.033Z,88
2018-09-26T00:44:57.059Z,88
2018-09-26T00:45:59.365Z,88
2018-09-26T00:47:01.383Z,88
2018-09-26T00:48:03.415Z,88
2018-09-26T00:49:05.815Z,88
2018-09-26T00:50:07.852Z,88
2018-09-26T00:51:09.866Z,88
2018-09-26T00:52:11.891Z,88
2018-09-26T00:53:13.916Z,88
2018-09-26T00:54:15.941Z,88
2018-09-26T00:55:17.956Z,88
2018-09-26T00:56:20.560Z,88
2018-09-26T00:57:22.576Z,88
2018-09-26T00:58:24.591Z,88
2018-09-26T00:59:26.607Z,88
2018-09-26T01:00:28.640Z,88
2018-09-26T01:01:30.657Z,88
2018-09-26T01:02:32.677Z,88
2018-09-26T01:03:34.703Z,88
2018-09-26T01:04:37.298Z,88
2018-09-26T01:05:39.326Z,88
2018-09-26T01:06:41.354Z,87
2018-09-26T01:07:44.129Z,88
2018-09-26T01:08:46.153Z,88
2018-09-26T01:09:48.187Z,88
2018-09-26T01:10:50.204Z,88
2018-09-26T01:11:52.230Z,88
2018-09-26T01:12:54.247Z,88
2018-09-26T01:13:56.266Z,88
2018-09-26T01:14:58.282Z,88
2018-09-26T01:16:00.315Z,88
2018-09-26T01:17:02.618Z,88
2018-09-26T01:18:04.956Z,88
2018-09-26T01:19:07.263Z,88
2018-09-26T01:20:09.562Z,88
2018-09-26T01:21:11.593Z,88
2018-09-26T01:22:14.282Z,88
2018-09-26T01:23:16.308Z,88
2018-09-26T01:24:18.325Z,88
2018-09-26T01:25:20.362Z,87
2018-09-26T01:26:22.376Z,87
2018-09-26T01:27:24.392Z,88
2018-09-26T01:28:26.419Z,87
2018-09-26T01:29:28.429Z,87
2018-09-26T01:30:30.456Z,88
2018-09-26T01:31:32.863Z,87
2018-09-26T01:32:34.887Z,87
2018-09-26T01:33:36.897Z,87
2018-09-26T01:34:38.929Z,87
2018-09-26T01:35:41.228Z,87
2018-09-26T01:36:43.250Z,87
2018-09-26T01:37:45.282Z,87
2018-09-26T01:38:47.299Z,87
2018-09-26T01:39:49.613Z,87
2018-09-26T01:40:51.647Z,87
2018-09-26T01:41:53.665Z,87
2018-09-26T01:42:55.978Z,87
2018-09-26T01:43:57.993Z,87
2018-09-26T01:45:00.008Z,87
2018-09-26T01:46:02.325Z,87
2018-09-26T01:47:04.350Z,86
2018-09-26T01:48:07.153Z,86
2018-09-26T01:49:09.164Z,86
2018-09-26T01:50:11.196Z,86
2018-09-26T01:51:13.210Z,86
2018-09-26T01:52:15.234Z,86
2018-09-26T01:53:17.255Z,86
2018-09-26T01:54:19.267Z,86
2018-09-26T01:55:21.571Z,86
2018-09-26T01:56:23.588Z,86
2018-09-26T01:57:25.623Z,86
2018-09-26T01:58:27.630Z,85
2018-09-26T01:59:29.654Z,85
2018-09-26T02:00:31.684Z,85
2018-09-26T02:01:33.697Z,85
2018-09-26T02:02:35.735Z,85
2018-09-26T02:03:37.745Z,85
2018-09-26T02:04:39.761Z,85
2018-09-26T02:05:42.164Z,85
2018-09-26T02:06:44.195Z,85
2018-09-26T02:07:46.212Z,85
2018-09-26T02:08:48.229Z,85
2018-09-26T02:09:50.633Z,85
2018-09-26T02:10:52.665Z,85
2018-09-26T02:11:54.681Z,85
2018-09-26T02:12:56.697Z,85
2018-09-26T02:13:58.729Z,85
2018-09-26T02:15:01.034Z,85
2018-09-26T02:16:03.049Z,85
2018-09-26T02:17:05.069Z,85
2018-09-26T02:18:07.365Z,85
2018-09-26T02:19:09.389Z,85
2018-09-26T02:20:11.420Z,85
2018-09-26T02:21:13.445Z,85
2018-09-26T02:22:16.125Z,85
2018-09-26T02:23:18.154Z,85
2018-09-26T02:24:20.169Z,85
2018-09-26T02:25:22.190Z,85
2018-09-26T02:26:24.218Z,85
2018-09-26T02:27:26.230Z,85
2018-09-26T02:28:28.545Z,85
2018-09-26T02:29:30.849Z,84
2018-09-26T02:30:33.873Z,84
2018-09-26T02:31:35.872Z,84
2018-09-26T02:32:38.587Z,84
2018-09-26T02:33:40.609Z,84
2018-09-26T02:34:42.626Z,84
2018-09-26T02:35:45.216Z,85
2018-09-26T02:36:47.232Z,85
2018-09-26T02:37:49.250Z,85
2018-09-26T02:38:51.267Z,84
2018-09-26T02:39:53.589Z,84
2018-09-26T02:40:55.886Z,84
2018-09-26T02:41:58.198Z,84
2018-09-26T02:43:00.228Z,84
2018-09-26T02:44:03.011Z,84
2018-09-26T02:45:05.043Z,84
2018-09-26T02:46:07.074Z,84
2018-09-26T02:47:09.091Z,84
2018-09-26T02:48:11.695Z,84
2018-09-26T02:49:13.725Z,84
2018-09-26T02:50:15.748Z,84
2018-09-26T02:51:18.056Z,84
2018-09-26T02:52:20.667Z,84
2018-09-26T02:53:23.256Z,84
2018-09-26T02:54:25.863Z,84
2018-09-26T02:55:27.896Z,84
2018-09-26T02:56:29.907Z,84
2018-09-26T02:57:32.320Z,84
2018-09-26T02:58:34.627Z,84
2018-09-26T02:59:36.648Z,84
2018-09-26T03:00:39.530Z,84
2018-09-26T03:01:41.862Z,84
2018-09-26T03:02:43.878Z,84
2018-09-26T03:03:45.888Z,84
2018-09-26T03:04:48.313Z,85
2018-09-26T03:05:50.727Z,85
2018-09-26T03:06:52.739Z,85
2018-09-26T03:07:55.534Z,85
2018-09-26T03:08:57.550Z,85
2018-09-26T03:10:00.147Z,85
2018-09-26T03:11:02.513Z,85
2018-09-26T03:12:04.488Z,85
2018-09-26T03:13:06.503Z,85
2018-09-26T03:14:08.811Z,85
2018-09-26T03:15:10.829Z,85
2018-09-26T03:16:13.123Z,85
2018-09-26T03:17:15.154Z,85
2018-09-26T03:18:17.172Z,85
2018-09-26T03:19:19.580Z,85
2018-09-26T03:20:21.931Z,85
2018-09-26T03:21:24.247Z,85
2018-09-26T03:22:26.266Z,85
2018-09-26T03:23:28.854Z,85
2018-09-26T03:24:30.878Z,85
2018-09-26T03:25:33.198Z,85
2018-09-26T03:26:35.216Z,85
2018-09-26T03:27:37.244Z,85
2018-09-26T03:28:39.261Z,85
2018-09-26T03:29:41.560Z,85
2018-09-26T03:30:43.863Z,85
2018-09-26T03:31:46.466Z,85
2018-09-26T03:32:48.483Z,85
2018-09-26T03:33:50.615Z,86
2018-09-26T03:34:52.532Z,85
2018-09-26T03:35:54.842Z,85
2018-09-26T03:36:56.855Z,85
2018-09-26T03:37:58.887Z,85
2018-09-26T03:39:01.193Z,85
2018-09-26T03:40:03.204Z,85
2018-09-26T03:41:05.521Z,85
2018-09-26T03:42:07.536Z,85
2018-09-26T03:43:09.558Z,85
2018-09-26T03:44:11.970Z,85
2018-09-26T03:45:13.999Z,85
2018-09-26T03:46:16.012Z,85
2018-09-26T03:47:18.038Z,85
2018-09-26T03:48:20.061Z,85
2018-09-26T03:49:22.367Z,85
2018-09-26T03:50:24.675Z,85
2018-09-26T03:51:26.691Z,85
2018-09-26T03:52:28.712Z,85
2018-09-26T03:53:31.033Z,85
2018-09-26T03:54:33.936Z,85
2018-09-26T03:55:35.953Z,85
2018-09-26T03:56:38.265Z,85
2018-09-26T03:57:40.662Z,85
2018-09-26T03:58:42.688Z,85
2018-09-26T03:59:44.724Z,84
2018-09-26T04:00:46.756Z,84
2018-09-26T04:01:49.072Z,84
2018-09-26T04:02:51.102Z,84
2018-09-26T04:03:53.120Z,84
2018-09-26T04:04:55.182Z,84
2018-09-26T04:05:57.171Z,84
2018-09-26T04:06:59.185Z,84
2018-09-26T04:08:01.210Z,84
2018-09-26T04:09:03.230Z,84
2018-09-26T04:10:05.652Z,84
2018-09-26T04:11:07.968Z,84
2018-09-26T04:12:09.997Z,84
2018-09-26T04:13:13.122Z,84
2018-09-26T04:14:15.415Z,84
2018-09-26T04:15:17.446Z,84
2018-09-26T04:16:19.748Z,84
2018-09-26T04:17:22.336Z,83
2018-09-26T04:18:24.349Z,83
2018-09-26T04:19:26.392Z,83
2018-09-26T04:20:28.539Z,83
2018-09-26T04:21:30.426Z,83
2018-09-26T04:22:32.841Z,83
2018-09-26T04:23:35.139Z,83
2018-09-26T04:24:37.170Z,83
2018-09-26T04:25:39.786Z,83
2018-09-26T04:26:41.969Z,83
2018-09-26T04:27:45.915Z,83
2018-09-26T04:28:48.690Z,82
2018-09-26T04:29:50.725Z,82
2018-09-26T04:30:53.707Z,82
2018-09-26T04:31:55.717Z,82
2018-09-26T04:32:58.260Z,82
2018-09-26T04:34:00.037Z,82
2018-09-26T04:35:02.357Z,82
2018-09-26T04:36:04.369Z,82
2018-09-26T04:37:06.688Z,82
2018-09-26T04:38:08.712Z,82
2018-09-26T04:39:11.028Z,81
2018-09-26T04:40:13.035Z,81
2018-09-26T04:41:15.744Z,81
2018-09-26T04:42:17.764Z,81
2018-09-26T04:43:20.262Z,81
2018-09-26T04:44:22.513Z,81
2018-09-26T04:45:24.541Z,81
2018-09-26T04:46:26.959Z,81
2018-09-26T04:47:29.280Z,81
2018-09-26T04:48:31.311Z,81
2018-09-26T04:49:33.323Z,81
2018-09-26T04:50:35.342Z,81
2018-09-26T04:51:37.641Z,81
2018-09-26T04:52:40.348Z,81
2018-09-26T04:53:42.363Z,81
2018-09-26T04:54:44.386Z,81
2018-09-26T04:55:46.690Z,81
2018-09-26T04:56:48.701Z,81
2018-09-26T04:57:51.315Z,81
2018-09-26T04:58:53.889Z,81
2018-09-26T04:59:56.198Z,81
2018-09-26T05:00:58.227Z,81
2018-09-26T05:02:00.536Z,81
2018-09-26T05:03:03.142Z,81
2018-09-26T05:04:05.449Z,81
2018-09-26T05:05:07.752Z,81
2018-09-26T05:06:10.055Z,81
2018-09-26T05:07:12.070Z,81
2018-09-26T05:08:14.137Z,81
2018-09-26T05:09:16.504Z,81
2018-09-26T05:10:18.838Z,81
2018-09-26T05:11:20.858Z,81
2018-09-26T05:12:22.875Z,81
2018-09-26T05:13:24.904Z,81
2018-09-26T05:14:26.918Z,81
2018-09-26T05:15:28.945Z,81
2018-09-26T05:16:30.959Z,80
2018-09-26T05:17:33.265Z,81
2018-09-26T05:18:35.291Z,81
2018-09-26T05:19:37.318Z,81
2018-09-26T05:20:39.330Z,81
2018-09-26T05:21:41.362Z,81
2018-09-26T05:22:43.426Z,81
2018-09-26T05:23:45.392Z,81
2018-09-26T05:24:47.697Z,81
2018-09-26T05:25:50.021Z,81
2018-09-26T05:26:52.038Z,81
2018-09-26T05:27:54.057Z,80
2018-09-26T05:28:56.083Z,80
2018-09-26T05:29:58.095Z,80
2018-09-26T05:31:00.118Z,81
2018-09-26T05:32:02.142Z,81
2018-09-26T05:33:04.152Z,80
2018-09-26T05:34:06.561Z,80
2018-09-26T05:35:08.589Z,80
2018-09-26T05:36:10.995Z,80
2018-09-26T05:37:13.019Z,80
2018-09-26T05:38:15.038Z,80
2018-09-26T05:39:17.054Z,80
2018-09-26T05:40:19.073Z,80
2018-09-26T05:41:21.101Z,80
2018-09-26T05:42:23.112Z,80
2018-09-26T05:43:25.139Z,80
2018-09-26T05:44:27.159Z,80
2018-09-26T05:45:29.177Z,80
2018-09-26T05:46:31.209Z,80
2018-09-26T05:47:33.224Z,79
2018-09-26T05:48:35.252Z,80
2018-09-26T05:49:37.260Z,80
2018-09-26T05:50:39.297Z,79
2018-09-26T05:51:41.897Z,79
2018-09-26T05:52:43.913Z,79
2018-09-26T05:53:45.939Z,79
2018-09-26T05:54:47.956Z,80
2018-09-26T05:55:49.973Z,79
2018-09-26T05:56:52.377Z,79
2018-09-26T05:57:54.394Z,79
2018-09-26T05:58:56.426Z,79
2018-09-26T05:59:58.441Z,79
2018-09-26T06:01:00.463Z,79
2018-09-26T06:02:02.492Z,79
2018-09-26T06:03:05.071Z,79
2018-09-26T06:04:07.098Z,79
2018-09-26T06:05:09.121Z,79
2018-09-26T06:06:11.135Z,79
2018-09-26T06:07:13.735Z,79
2018-09-26T06:08:16.347Z,79
2018-09-26T06:09:18.371Z,79
2018-09-26T06:10:20.397Z,78
2018-09-26T06:11:22.798Z,78
2018-09-26T06:12:25.052Z,78
2018-09-26T06:13:27.358Z,78
2018-09-26T06:14:29.393Z,78
2018-09-26T06:15:31.406Z,78
2018-09-26T06:16:33.433Z,78
2018-09-26T06:17:35.453Z,78
2018-09-26T06:18:37.469Z,78
2018-09-26T06:19:39.504Z,78
2018-09-26T06:20:41.819Z,78
2018-09-26T06:21:43.844Z,78
2018-09-26T06:22:45.857Z,78
2018-09-26T06:23:48.571Z,78
2018-09-26T06:24:51.072Z,78
2018-09-26T06:25:53.684Z,77
2018-09-26T06:26:55.714Z,77
2018-09-26T06:27:57.725Z,77
2018-09-26T06:28:59.754Z,77
2018-09-26T06:30:01.779Z,77
2018-09-26T06:31:04.191Z,76
2018-09-26T06:32:06.201Z,76
2018-09-26T06:33:08.227Z,76
2018-09-26T06:34:10.535Z,76
2018-09-26T06:35:12.550Z,76
2018-09-26T06:36:14.584Z,76
2018-09-26T06:37:16.601Z,76
2018-09-26T06:38:18.620Z,76
2018-09-26T06:39:20.940Z,76
2018-09-26T06:40:23.016Z,76
2018-09-26T06:41:25.372Z,75
2018-09-26T06:42:27.398Z,76
2018-09-26T06:43:29.697Z,75
2018-09-26T06:44:31.725Z,75
2018-09-26T06:45:33.752Z,75
2018-09-26T06:46:35.784Z,75
2018-09-26T06:47:38.160Z,75
2018-09-26T06:48:40.129Z,75
2018-09-26T06:49:42.150Z,74
2018-09-26T06:50:44.170Z,74
2018-09-26T06:51:46.201Z,74
2018-09-26T06:52:48.214Z,75
2018-09-26T06:53:50.656Z,75
2018-09-26T06:54:52.654Z,74
2018-09-26T06:55:54.690Z,74
2018-09-26T06:56:56.703Z,73
2018-09-26T06:57:58.732Z,74
2018-09-26T06:59:00.760Z,73
2018-09-26T07:00:02.777Z,73
2018-09-26T07:01:05.101Z,73
2018-09-26T07:02:07.121Z,73
2018-09-26T07:03:09.423Z,73
2018-09-26T07:04:11.443Z,73
2018-09-26T07:05:13.479Z,72
2018-09-26T07:06:15.496Z,72
2018-09-26T07:07:17.905Z,72
2018-09-26T07:08:19.932Z,72
2018-09-26T07:09:22.333Z,72
2018-09-26T07:10:25.092Z,72
2018-09-26T07:11:27.389Z,72
2018-09-26T07:12:29.425Z,71
2018-09-26T07:13:31.831Z,71
2018-09-26T07:14:33.843Z,71
2018-09-26T07:15:36.540Z,71
2018-09-26T07:16:38.562Z,71
2018-09-26T07:17:40.591Z,71
2018-09-26T07:18:42.619Z,71
2018-09-26T07:19:44.656Z,71
2018-09-26T07:20:47.047Z,71
2018-09-26T07:21:49.384Z,70
2018-09-26T07:22:51.400Z,70
2018-09-26T07:23:53.854Z,70
2018-09-26T07:24:55.839Z,69
2018-09-26T07:25:57.856Z,69
2018-09-26T07:26:59.884Z,69
2018-09-26T07:28:02.290Z,69
2018-09-26T07:29:04.323Z,69
2018-09-26T07:30:06.340Z,68
2018-09-26T07:31:08.370Z,70
2018-09-26T07:32:11.207Z,68
2018-09-26T07:33:13.177Z,67
2018-09-26T07:34:15.213Z,68
2018-09-26T07:35:17.528Z,68
2018-09-26T07:36:19.552Z,68
2018-09-26T07:37:21.574Z,67
2018-09-26T07:38:24.287Z,67
2018-09-26T07:39:26.645Z,66
2018-09-26T07:40:28.956Z,66
2018-09-26T07:41:31.373Z,65
2018-09-26T07:42:33.395Z,66
2018-09-26T07:43:35.703Z,66
2018-09-26T07:44:37.737Z,66
2018-09-26T07:45:40.097Z,65
2018-09-26T07:46:42.063Z,65
2018-09-26T07:47:44.096Z,65
2018-09-26T07:48:46.707Z,65
2018-09-26T07:49:49.783Z,65
2018-09-26T07:50:51.813Z,65
2018-09-26T07:51:53.842Z,65
2018-09-26T07:52:56.812Z,64
2018-09-26T07:53:59.075Z,65
2018-09-26T07:55:01.113Z,65
2018-09-26T07:56:03.133Z,64
2018-09-26T07:57:05.164Z,65
2018-09-26T07:58:07.508Z,65
2018-09-26T07:59:09.594Z,65
2018-09-26T08:00:11.546Z,64
2018-09-26T08:01:13.856Z,64
2018-09-26T08:02:16.289Z,64
2018-09-26T08:03:18.709Z,64
2018-09-26T08:04:21.406Z,65
2018-09-26T08:05:23.437Z,65
2018-09-26T08:06:25.457Z,64
2018-09-26T08:07:27.495Z,64
2018-09-26T08:08:29.900Z,64
2018-09-26T08:09:31.920Z,64
2018-09-26T08:10:33.943Z,63
2018-09-26T08:11:36.034Z,63
2018-09-26T08:12:37.998Z,63
2018-09-26T08:13:40.030Z,62
2018-09-26T08:14:42.060Z,63
2018-09-26T08:15:44.076Z,63
2018-09-26T08:16:46.775Z,62
2018-09-26T08:17:48.800Z,62
2018-09-26T08:18:50.813Z,62
2018-09-26T08:19:52.843Z,61
2018-09-26T08:20:55.159Z,61
2018-09-26T08:21:57.463Z,61
2018-09-26T08:22:59.497Z,61
2018-09-26T08:24:02.032Z,61
2018-09-26T08:25:04.801Z,60
2018-09-26T08:26:06.818Z,60
2018-09-26T08:27:09.224Z,60
2018-09-26T08:28:11.266Z,60
2018-09-26T08:29:13.577Z,59
2018-09-26T08:30:15.607Z,59
2018-09-26T08:31:17.642Z,59
2018-09-26T08:32:19.659Z,59
2018-09-26T08:33:21.974Z,58
2018-09-26T08:34:24.380Z,58
2018-09-26T08:35:26.415Z,57
2018-09-26T08:36:28.823Z,57
2018-09-26T08:37:30.857Z,57
2018-09-26T08:38:32.889Z,57
2018-09-26T08:39:34.915Z,57
2018-09-26T08:40:36.950Z,57
2018-09-26T08:41:39.366Z,58
2018-09-26T08:42:41.386Z,56
2018-09-26T08:43:43.779Z,56
2018-09-26T08:44:45.737Z,55
2018-09-26T08:45:47.761Z,55
2018-09-26T08:46:49.788Z,55
2018-09-26T08:47:51.823Z,56
2018-09-26T08:48:53.840Z,56
2018-09-26T08:49:55.873Z,56
2018-09-26T08:50:57.908Z,55
2018-09-26T08:51:59.933Z,54
2018-09-26T08:53:01.963Z,53
2018-09-26T08:54:03.998Z,53
2018-09-26T08:55:06.026Z,53
2018-09-26T08:56:08.060Z,53
2018-09-26T08:57:10.180Z,54
2018-09-26T08:58:12.205Z,54
2018-09-26T08:59:14.232Z,52
2018-09-26T09:00:16.294Z,52
2018-09-26T09:01:18.309Z,53
2018-09-26T09:02:20.353Z,53
2018-09-26T09:03:22.799Z,53
2018-09-26T09:04:25.172Z,52
2018-09-26T09:05:27.225Z,52
2018-09-26T09:06:29.556Z,53
2018-09-26T09:07:31.931Z,51
2018-09-26T09:08:33.978Z,51
2018-09-26T09:09:36.026Z,52
2018-09-26T09:10:38.433Z,51
2018-09-26T09:11:41.361Z,51
2018-09-26T09:12:43.745Z,51
2018-09-26T09:13:46.473Z,51
2018-09-26T09:14:48.678Z,51
2018-09-26T09:15:50.553Z,53
2018-09-26T09:16:52.584Z,54
2018-09-26T09:17:54.682Z,52
2018-09-26T09:18:56.927Z,52
2018-09-26T09:19:58.957Z,52
2018-09-26T09:21:00.982Z,52
2018-09-26T09:22:03.030Z,52
2018-09-26T09:23:05.347Z,52
2018-09-26T09:24:07.370Z,53
2018-09-26T09:25:09.412Z,53
2018-09-26T09:26:11.441Z,53
2018-09-26T09:27:14.771Z,53
2018-09-26T09:28:17.118Z,54
2018-09-26T09:29:19.428Z,52
2018-09-26T09:30:21.468Z,52
2018-09-26T09:31:23.502Z,54
2018-09-26T09:32:25.538Z,53
2018-09-26T09:33:27.604Z,52
2018-09-26T09:34:29.641Z,51
2018-09-26T09:35:31.670Z,51
2018-09-26T09:36:33.744Z,50
2018-09-26T09:37:35.742Z,50
2018-09-26T09:38:37.764Z,50
2018-09-26T09:39:39.796Z,49
2018-09-26T09:40:41.820Z,51
2018-09-26T09:41:43.861Z,51
2018-09-26T09:42:45.884Z,48
2018-09-26T09:43:47.908Z,49
2018-09-26T09:44:50.217Z,48
2018-09-26T09:45:52.256Z,48
2018-09-26T09:46:54.662Z,48
2018-09-26T09:47:56.697Z,49
2018-09-26T09:48:59.028Z,50
2018-09-26T09:50:01.373Z,48
2018-09-26T09:51:03.678Z,47
2018-09-26T09:52:05.724Z,48
2018-09-26T09:53:07.758Z,48
2018-09-26T09:54:09.779Z,49
2018-09-26T09:55:11.825Z,47
2018-09-26T09:56:14.250Z,48
2018-09-26T09:57:16.257Z,48
2018-09-26T09:58:18.297Z,48
2018-09-26T09:59:20.714Z,49
2018-09-26T10:00:22.741Z,48
2018-09-26T10:01:25.059Z,47
2018-09-26T10:02:27.244Z,47
2018-09-26T10:03:29.124Z,46
2018-09-26T10:04:31.649Z,47
2018-09-26T10:05:33.702Z,47
2018-09-26T10:06:35.722Z,47
2018-09-26T10:07:37.772Z,47
2018-09-26T10:08:39.806Z,46
2018-09-26T10:09:41.835Z,46
2018-09-26T10:10:44.000Z,45
2018-09-26T10:11:46.036Z,45
2018-09-26T10:12:48.076Z,44
2018-09-26T10:13:50.390Z,45
2018-09-26T10:14:52.450Z,45
2018-09-26T10:15:54.556Z,44
2018-09-26T10:16:56.598Z,45
2018-09-26T10:17:58.643Z,45
2018-09-26T10:19:00.960Z,46
2018-09-26T10:20:03.003Z,46
2018-09-26T10:21:05.425Z,46
2018-09-26T10:22:07.463Z,46
2018-09-26T10:23:09.499Z,45
2018-09-26T10:24:11.570Z,45
2018-09-26T10:25:13.744Z,45
2018-09-26T10:26:17.012Z,45
2018-09-26T10:27:18.968Z,46
2018-09-26T10:28:21.013Z,45
2018-09-26T10:29:23.047Z,45
2018-09-26T10:30:25.848Z,45
2018-09-26T10:31:27.892Z,45
2018-09-26T10:32:30.214Z,45
2018-09-26T10:33:32.526Z,45
2018-09-26T10:34:34.560Z,46
2018-09-26T10:35:36.588Z,45
2018-09-26T10:36:38.625Z,45
2018-09-26T10:37:40.663Z,46
2018-09-26T10:38:42.700Z,45
2018-09-26T10:39:44.723Z,46
2018-09-26T10:40:46.828Z,45
2018-09-26T10:41:49.182Z,45
2018-09-26T10:42:51.496Z,46
2018-09-26T10:43:53.547Z,45
2018-09-26T10:44:55.934Z,45
2018-09-26T10:45:57.975Z,45
2018-09-26T10:47:00.291Z,45
2018-09-26T10:48:02.335Z,45
2018-09-26T10:49:04.641Z,45
2018-09-26T10:50:06.721Z,45
2018-09-26T10:51:09.110Z,45
2018-09-26T10:52:11.139Z,45
2018-09-26T10:53:13.180Z,46
2018-09-26T10:54:15.209Z,47
2018-09-26T10:55:17.236Z,44
2018-09-26T10:56:19.399Z,45
2018-09-26T10:57:21.320Z,45
2018-09-26T10:58:23.339Z,44
2018-09-26T10:59:25.369Z,44
2018-09-26T11:00:27.682Z,44
2018-09-26T11:01:29.724Z,44
2018-09-26T11:02:31.825Z,44
2018-09-26T11:03:33.781Z,47
2018-09-26T11:04:35.826Z,44
2018-09-26T11:05:37.856Z,44
2018-09-26T11:06:39.883Z,44
2018-09-26T11:07:41.916Z,44
2018-09-26T11:08:44.327Z,43
2018-09-26T11:09:46.366Z,44
2018-09-26T11:10:48.403Z,44
2018-09-26T11:11:50.441Z,45
2018-09-26T11:12:52.471Z,44
2018-09-26T11:13:54.517Z,44
2018-09-26T11:14:56.547Z,44
2018-09-26T11:15:58.949Z,44
2018-09-26T11:17:01.213Z,43
2018-09-26T11:18:03.518Z,45
2018-09-26T11:19:05.559Z,46
2018-09-26T11:20:08.510Z,45
2018-09-26T11:21:12.870Z,45
2018-09-26T11:22:15.432Z,45
2018-09-26T11:23:17.341Z,45
2018-09-26T11:24:19.668Z,46
2018-09-26T11:25:21.978Z,45
2018-09-26T11:26:24.178Z,45
2018-09-26T11:27:26.054Z,45
2018-09-26T11:28:28.213Z,45
2018-09-26T11:29:30.183Z,46
2018-09-26T11:30:32.582Z,46
2018-09-26T11:31:34.637Z,46
2018-09-26T11:32:37.023Z,44
2018-09-26T11:33:39.427Z,45
2018-09-26T11:34:41.771Z,45
2018-09-26T11:35:44.563Z,44
2018-09-26T11:36:46.670Z,45
2018-09-26T11:37:48.698Z,44
2018-09-26T11:38:51.122Z,45
2018-09-26T11:39:53.189Z,45
2018-09-26T11:40:55.224Z,46
2018-09-26T11:41:57.865Z,44
2018-09-26T11:43:00.250Z,43
2018-09-26T11:44:03.166Z,43
2018-09-26T11:45:05.198Z,43
2018-09-26T11:46:07.265Z,43
2018-09-26T11:47:09.576Z,43
2018-09-26T11:48:11.625Z,43
2018-09-26T11:49:13.773Z,44
2018-09-26T11:50:15.924Z,43
2018-09-26T11:51:18.647Z,43
2018-09-26T11:52:21.001Z,44
2018-09-26T11:53:22.948Z,43
2018-09-26T11:54:24.971Z,42
2018-09-26T11:55:27.016Z,42
2018-09-26T11:56:29.191Z,42
2018-09-26T11:57:31.567Z,43
2018-09-26T11:58:33.615Z,42
2018-09-26T11:59:35.932Z,43
2018-09-26T12:00:38.274Z,42
2018-09-26T12:01:40.312Z,42
2018-09-26T12:02:42.470Z,41
2018-09-26T12:03:44.427Z,41
2018-09-26T12:04:46.463Z,41
2018-09-26T12:05:48.501Z,41
2018-09-26T12:06:50.528Z,42
2018-09-26T12:07:52.572Z,42
2018-09-26T12:08:54.606Z,41
2018-09-26T12:09:56.634Z,43
2018-09-26T12:10:59.062Z,42
2018-09-26T12:12:01.110Z,41
2018-09-26T12:13:03.139Z,41
2018-09-26T12:14:05.172Z,41
2018-09-26T12:15:07.267Z,40
2018-09-26T12:16:09.676Z,40
2018-09-26T12:17:11.719Z,41
2018-09-26T12:18:13.833Z,40
2018-09-26T12:19:16.196Z,40
2018-09-26T12:20:18.592Z,39
2018-09-26T12:21:30.353Z,39
2018-09-26T12:22:22.809Z,39
2018-09-26T12:23:25.548Z,40
2018-09-26T12:24:27.990Z,41
2018-09-26T12:25:30.027Z,40
2018-09-26T12:26:32.948Z,41
2018-09-26T12:27:34.971Z,40
2018-09-26T12:28:37.030Z,42
2018-09-26T12:29:39.447Z,39
2018-09-26T12:30:41.478Z,39
2018-09-26T12:31:43.523Z,39
2018-09-26T12:32:45.573Z,39
2018-09-26T12:33:47.620Z,38
2018-09-26T12:34:50.831Z,38
2018-09-26T12:35:52.815Z,38
2018-09-26T12:36:54.842Z,38
2018-09-26T12:37:57.123Z,39
2018-09-26T12:38:59.284Z,40
2018-09-26T12:40:01.343Z,39
2018-09-26T12:41:03.998Z,39
2018-09-26T12:42:06.337Z,38
2018-09-26T12:43:08.339Z,38
2018-09-26T12:44:10.386Z,39
2018-09-26T12:45:12.801Z,38
2018-09-26T12:46:15.284Z,39
2018-09-26T12:47:17.340Z,41
2018-09-26T12:48:19.751Z,39
2018-09-26T12:49:22.028Z,38
2018-09-26T12:50:24.070Z,38
2018-09-26T12:51:26.406Z,39
2018-09-26T12:52:29.154Z,38
2018-09-26T12:53:31.691Z,38
2018-09-26T12:54:33.669Z,38
2018-09-26T12:55:36.092Z,38
2018-09-26T12:56:38.425Z,40
2018-09-26T12:57:40.762Z,39
2018-09-26T12:58:42.794Z,38
2018-09-26T12:59:44.832Z,38
2018-09-26T13:00:46.977Z,38
2018-09-26T13:01:48.903Z,38
2018-09-26T13:02:51.215Z,37
2018-09-26T13:03:53.246Z,37
2018-09-26T13:04:55.669Z,37
2018-09-26T13:05:57.695Z,37
2018-09-26T13:06:59.740Z,37
2018-09-26T13:08:02.070Z,37
2018-09-26T13:09:04.397Z,37
2018-09-26T13:10:06.472Z,38
2018-09-26T13:11:08.461Z,38
2018-09-26T13:12:10.814Z,38
2018-09-26T13:13:13.194Z,37
2018-09-26T13:14:15.754Z,39
2018-09-26T13:15:18.130Z,38
2018-09-26T13:16:20.769Z,37
2018-09-26T13:17:22.766Z,37
2018-09-26T13:18:25.360Z,38
2018-09-26T13:19:27.325Z,38
2018-09-26T13:20:29.364Z,38
2018-09-26T13:21:31.399Z,39
2018-09-26T13:22:33.443Z,37
2018-09-26T13:23:35.483Z,37
2018-09-26T13:24:37.527Z,37
2018-09-26T13:25:39.911Z,38
2018-09-26T13:26:42.329Z,37
2018-09-26T13:27:44.359Z,37
2018-09-26T13:28:46.781Z,37
2018-09-26T13:29:48.811Z,37
2018-09-26T13:30:50.869Z,37
2018-09-26T13:31:52.895Z,37
2018-09-26T13:32:54.939Z,37
2018-09-26T13:33:56.968Z,37
2018-09-26T13:34:59.016Z,37
2018-09-26T13:36:01.432Z,36
2018-09-26T13:37:03.460Z,37
2018-09-26T13:38:05.531Z,36
2018-09-26T13:39:07.665Z,37
2018-09-26T13:40:09.593Z,37
2018-09-26T13:41:11.614Z,37
2018-09-26T13:42:13.672Z,37
2018-09-26T13:43:15.683Z,38
2018-09-26T13:44:18.162Z,38
2018-09-26T13:45:20.434Z,38
2018-09-26T13:46:23.120Z,37
2018-09-26T13:47:25.425Z,37
2018-09-26T13:48:28.053Z,37
2018-09-26T13:49:30.082Z,38
2018-09-26T13:50:32.128Z,38
2018-09-26T13:51:34.160Z,38
2018-09-26T13:52:36.189Z,38
2018-09-26T13:53:38.224Z,38
2018-09-26T13:54:40.254Z,37
2018-09-26T13:55:42.296Z,39
2018-09-26T13:56:44.338Z,40
2018-09-26T13:57:46.375Z,39
2018-09-26T13:58:48.404Z,38
2018-09-26T13:59:50.459Z,37
2018-09-26T14:00:52.486Z,38
2018-09-26T14:01:54.519Z,36
2018-09-26T14:02:56.560Z,37
2018-09-26T14:03:58.591Z,38
2018-09-26T14:05:00.642Z,38
2018-09-26T14:06:02.671Z,37
2018-09-26T14:07:04.721Z,36
2018-09-26T14:08:06.747Z,37
2018-09-26T14:09:08.789Z,37
2018-09-26T14:10:10.831Z,36
2018-09-26T14:11:13.157Z,37
2018-09-26T14:12:15.627Z,37
2018-09-26T14:13:17.625Z,37
2018-09-26T14:14:19.703Z,37
2018-09-26T14:15:22.069Z,37
2018-09-26T14:16:24.117Z,38
2018-09-26T14:17:26.242Z,38
2018-09-26T14:18:28.182Z,38
2018-09-26T14:19:30.222Z,38
2018-09-26T14:20:32.249Z,38
2018-09-26T14:21:34.883Z,39
2018-09-26T14:22:37.395Z,38
2018-09-26T14:23:39.930Z,38
2018-09-26T14:24:41.835Z,38
2018-09-26T14:25:43.879Z,38
2018-09-26T14:26:46.581Z,38
2018-09-26T14:27:48.621Z,38
2018-09-26T14:28:50.654Z,38
2018-09-26T14:29:52.684Z,38
2018-09-26T14:30:54.721Z,38
2018-09-26T14:31:56.761Z,38
2018-09-26T14:32:58.788Z,38
2018-09-26T14:34:00.830Z,38
2018-09-26T14:35:02.873Z,38
2018-09-26T14:36:05.297Z,39
2018-09-26T14:37:07.347Z,38
2018-09-26T14:38:09.405Z,38
2018-09-26T14:39:12.164Z,39
2018-09-26T14:40:14.145Z,39
2018-09-26T14:41:16.680Z,39
2018-09-26T14:42:19.007Z,39
2018-09-26T14:43:21.034Z,39
2018-09-26T14:44:23.655Z,39
2018-09-26T14:45:26.746Z,39
2018-09-26T14:46:29.342Z,39